sensor_id;sensor_type;location;lat;lon;timestamp;P1;durP1;ratioP1;P2;durP2;ratioP2
71513;SDS011;59335;46.652;21.272;2022-10-14T00:02:10;21.27;;;11.95;;
71513;SDS011;59335;46.652;21.272;2022-10-14T00:05:13;19.73;;;12.50;;
71513;SDS011;59335;46.652;21.272;2022-10-14T00:08:15;20.13;;;11.80;;
71513;SDS011;59335;46.652;21.272;2022-10-14T00:11:19;19.08;;;12.35;;
71513;SDS011;59335;46.652;21.272;2022-10-14T00:14:30;20.10;;;12.17;;
71513;SDS011;59335;46.652;21.272;2022-10-14T00:17:35;20.65;;;12.27;;
71513;SDS011;59335;46.652;21.272;2022-10-14T00:20:37;19.75;;;12.80;;
71513;SDS011;59335;46.652;21.272;2022-10-14T00:23:41;18.50;;;12.07;;
71513;SDS011;59335;46.652;21.272;2022-10-14T00:26:44;20.73;;;12.65;;
71513;SDS011;59335;46.652;21.272;2022-10-14T00:29:47;21.57;;;12.53;;
71513;SDS011;59335;46.652;21.272;2022-10-14T00:32:50;19.02;;;11.90;;
71513;SDS011;59335;46.652;21.272;2022-10-14T00:36:00;20.70;;;12.50;;
71513;SDS011;59335;46.652;21.272;2022-10-14T00:39:08;21.27;;;12.27;;
71513;SDS011;59335;46.652;21.272;2022-10-14T00:42:13;18.90;;;12.20;;
71513;SDS011;59335;46.652;21.272;2022-10-14T00:45:19;20.63;;;11.70;;
71513;SDS011;59335;46.652;21.272;2022-10-14T00:48:24;21.17;;;11.95;;
71513;SDS011;59335;46.652;21.272;2022-10-14T00:51:29;17.85;;;12.23;;
71513;SDS011;59335;46.652;21.272;2022-10-14T00:54:33;21.17;;;12.45;;
71513;SDS011;59335;46.652;21.272;2022-10-14T00:57:38;21.50;;;12.35;;
71513;SDS011;59335;46.652;21.272;2022-10-14T01:00:43;17.83;;;12.10;;
71513;SDS011;59335;46.652;21.272;2022-10-14T01:03:46;19.42;;;12.00;;
71513;SDS011;59335;46.652;21.272;2022-10-14T01:06:55;18.98;;;11.35;;
71513;SDS011;59335;46.652;21.272;2022-10-14T01:13:41;17.30;;;11.52;;
71513;SDS011;59335;46.652;21.272;2022-10-14T01:30:13;17.92;;;11.52;;
71513;SDS011;59335;46.652;21.272;2022-10-14T01:33:19;19.07;;;11.20;;
71513;SDS011;59335;46.652;21.272;2022-10-14T01:36:29;18.95;;;11.15;;
71513;SDS011;59335;46.652;21.272;2022-10-14T01:39:40;19.15;;;11.45;;
71513;SDS011;59335;46.652;21.272;2022-10-14T01:42:47;19.10;;;11.73;;
71513;SDS011;59335;46.652;21.272;2022-10-14T01:45:50;20.60;;;12.30;;
71513;SDS011;59335;46.652;21.272;2022-10-14T01:48:57;22.17;;;12.33;;
71513;SDS011;59335;46.652;21.272;2022-10-14T01:52:14;18.50;;;11.50;;
71513;SDS011;59335;46.652;21.272;2022-10-14T01:55:23;21.65;;;12.40;;
71513;SDS011;59335;46.652;21.272;2022-10-14T01:58:29;19.50;;;11.25;;
71513;SDS011;59335;46.652;21.272;2022-10-14T02:01:36;20.15;;;11.77;;
71513;SDS011;59335;46.652;21.272;2022-10-14T02:04:40;19.50;;;11.43;;
71513;SDS011;59335;46.652;21.272;2022-10-14T02:07:46;20.10;;;11.70;;
71513;SDS011;59335;46.652;21.272;2022-10-14T02:20:57;18.50;;;11.53;;
71513;SDS011;59335;46.652;21.272;2022-10-14T02:24:08;19.33;;;11.52;;
71513;SDS011;59335;46.652;21.272;2022-10-14T02:27:17;18.15;;;11.20;;
71513;SDS011;59335;46.652;21.272;2022-10-14T02:30:23;17.75;;;11.07;;
71513;SDS011;59335;46.652;21.272;2022-10-14T02:33:32;19.00;;;11.43;;
71513;SDS011;59335;46.652;21.272;2022-10-14T02:36:41;16.83;;;11.60;;
71513;SDS011;59335;46.652;21.272;2022-10-14T02:39:51;17.45;;;10.52;;
71513;SDS011;59335;46.652;21.272;2022-10-14T02:42:59;17.27;;;10.73;;
71513;SDS011;59335;46.652;21.272;2022-10-14T02:46:03;18.00;;;11.18;;
71513;SDS011;59335;46.652;21.272;2022-10-14T02:49:06;17.67;;;10.57;;
71513;SDS011;59335;46.652;21.272;2022-10-14T02:52:09;18.50;;;11.40;;
71513;SDS011;59335;46.652;21.272;2022-10-14T02:55:14;17.02;;;10.68;;
71513;SDS011;59335;46.652;21.272;2022-10-14T02:58:18;17.10;;;11.13;;
71513;SDS011;59335;46.652;21.272;2022-10-14T03:01:22;17.73;;;10.88;;
71513;SDS011;59335;46.652;21.272;2022-10-14T03:04:25;16.80;;;10.75;;
71513;SDS011;59335;46.652;21.272;2022-10-14T03:07:28;17.73;;;10.60;;
71513;SDS011;59335;46.652;21.272;2022-10-14T03:10:35;18.23;;;10.48;;
71513;SDS011;59335;46.652;21.272;2022-10-14T03:13:39;16.88;;;10.40;;
71513;SDS011;59335;46.652;21.272;2022-10-14T03:16:42;16.95;;;10.35;;
71513;SDS011;59335;46.652;21.272;2022-10-14T03:19:50;15.52;;;10.23;;
71513;SDS011;59335;46.652;21.272;2022-10-14T03:22:52;16.80;;;10.87;;
71513;SDS011;59335;46.652;21.272;2022-10-14T03:25:56;16.55;;;10.40;;
71513;SDS011;59335;46.652;21.272;2022-10-14T03:29:03;17.48;;;10.75;;
71513;SDS011;59335;46.652;21.272;2022-10-14T03:32:27;16.95;;;10.60;;
71513;SDS011;59335;46.652;21.272;2022-10-14T03:35:53;16.35;;;10.55;;
71513;SDS011;59335;46.652;21.272;2022-10-14T03:39:08;17.10;;;10.50;;
71513;SDS011;59335;46.652;21.272;2022-10-14T03:42:24;16.35;;;10.65;;
71513;SDS011;59335;46.652;21.272;2022-10-14T03:45:26;15.60;;;10.02;;
71513;SDS011;59335;46.652;21.272;2022-10-14T03:48:30;19.73;;;10.07;;
71513;SDS011;59335;46.652;21.272;2022-10-14T03:51:33;15.75;;;9.93;;
71513;SDS011;59335;46.652;21.272;2022-10-14T03:54:44;15.87;;;10.17;;
71513;SDS011;59335;46.652;21.272;2022-10-14T03:57:49;15.23;;;10.00;;
71513;SDS011;59335;46.652;21.272;2022-10-14T04:00:54;15.90;;;10.23;;
71513;SDS011;59335;46.652;21.272;2022-10-14T04:04:11;15.32;;;9.65;;
71513;SDS011;59335;46.652;21.272;2022-10-14T04:07:14;16.20;;;10.05;;
71513;SDS011;59335;46.652;21.272;2022-10-14T04:10:27;15.00;;;9.73;;
71513;SDS011;59335;46.652;21.272;2022-10-14T04:13:30;13.95;;;9.40;;
71513;SDS011;59335;46.652;21.272;2022-10-14T04:16:34;15.25;;;9.50;;
71513;SDS011;59335;46.652;21.272;2022-10-14T04:19:42;16.00;;;9.85;;
71513;SDS011;59335;46.652;21.272;2022-10-14T04:22:48;15.82;;;9.77;;
71513;SDS011;59335;46.652;21.272;2022-10-14T04:25:52;16.07;;;9.20;;
71513;SDS011;59335;46.652;21.272;2022-10-14T04:28:54;17.30;;;9.68;;
71513;SDS011;59335;46.652;21.272;2022-10-14T04:32:06;16.08;;;10.20;;
71513;SDS011;59335;46.652;21.272;2022-10-14T04:35:10;15.20;;;9.40;;
71513;SDS011;59335;46.652;21.272;2022-10-14T04:38:17;15.90;;;9.75;;
71513;SDS011;59335;46.652;21.272;2022-10-14T04:41:27;14.63;;;9.53;;
71513;SDS011;59335;46.652;21.272;2022-10-14T04:44:33;14.75;;;9.80;;
71513;SDS011;59335;46.652;21.272;2022-10-14T04:47:38;16.05;;;9.80;;
71513;SDS011;59335;46.652;21.272;2022-10-14T04:50:48;15.45;;;9.90;;
71513;SDS011;59335;46.652;21.272;2022-10-14T04:54:18;15.30;;;9.48;;
71513;SDS011;59335;46.652;21.272;2022-10-14T04:57:27;15.33;;;9.70;;
71513;SDS011;59335;46.652;21.272;2022-10-14T05:00:30;15.00;;;9.57;;
71513;SDS011;59335;46.652;21.272;2022-10-14T05:03:43;15.73;;;9.93;;
71513;SDS011;59335;46.652;21.272;2022-10-14T05:06:46;15.48;;;9.63;;
71513;SDS011;59335;46.652;21.272;2022-10-14T05:09:52;14.27;;;8.98;;
71513;SDS011;59335;46.652;21.272;2022-10-14T05:13:10;14.27;;;9.23;;
71513;SDS011;59335;46.652;21.272;2022-10-14T05:16:26;15.20;;;9.32;;
71513;SDS011;59335;46.652;21.272;2022-10-14T05:19:29;15.15;;;9.18;;
71513;SDS011;59335;46.652;21.272;2022-10-14T05:22:32;15.98;;;8.93;;
71513;SDS011;59335;46.652;21.272;2022-10-14T05:25:35;16.50;;;9.57;;
71513;SDS011;59335;46.652;21.272;2022-10-14T05:28:38;14.37;;;9.23;;
71513;SDS011;59335;46.652;21.272;2022-10-14T05:31:43;15.88;;;9.63;;
71513;SDS011;59335;46.652;21.272;2022-10-14T05:35:04;15.02;;;9.52;;
71513;SDS011;59335;46.652;21.272;2022-10-14T05:38:14;13.93;;;9.15;;
71513;SDS011;59335;46.652;21.272;2022-10-14T05:41:21;18.92;;;10.23;;
71513;SDS011;59335;46.652;21.272;2022-10-14T05:44:24;15.07;;;9.30;;
71513;SDS011;59335;46.652;21.272;2022-10-14T05:47:28;15.63;;;9.45;;
71513;SDS011;59335;46.652;21.272;2022-10-14T05:50:36;15.43;;;9.77;;
71513;SDS011;59335;46.652;21.272;2022-10-14T05:53:44;16.02;;;9.63;;
71513;SDS011;59335;46.652;21.272;2022-10-14T05:56:51;15.38;;;9.63;;
71513;SDS011;59335;46.652;21.272;2022-10-14T05:59:57;17.40;;;9.97;;
71513;SDS011;59335;46.652;21.272;2022-10-14T06:03:05;17.67;;;9.95;;
71513;SDS011;59335;46.652;21.272;2022-10-14T06:06:12;17.25;;;8.93;;
71513;SDS011;59335;46.652;21.272;2022-10-14T06:09:16;16.35;;;9.80;;
71513;SDS011;59335;46.652;21.272;2022-10-14T06:12:20;15.13;;;10.20;;
71513;SDS011;59335;46.652;21.272;2022-10-14T06:15:23;21.13;;;9.60;;
71513;SDS011;59335;46.652;21.272;2022-10-14T06:18:29;17.67;;;9.80;;
71513;SDS011;59335;46.652;21.272;2022-10-14T06:21:33;18.02;;;9.02;;
71513;SDS011;59335;46.652;21.272;2022-10-14T06:24:36;16.00;;;9.20;;
71513;SDS011;59335;46.652;21.272;2022-10-14T06:27:40;17.33;;;9.10;;
71513;SDS011;59335;46.652;21.272;2022-10-14T06:30:53;16.37;;;9.57;;
71513;SDS011;59335;46.652;21.272;2022-10-14T06:33:56;17.63;;;9.30;;
71513;SDS011;59335;46.652;21.272;2022-10-14T06:37:02;19.67;;;9.32;;
71513;SDS011;59335;46.652;21.272;2022-10-14T06:40:05;16.05;;;8.88;;
71513;SDS011;59335;46.652;21.272;2022-10-14T06:43:09;14.48;;;8.80;;
71513;SDS011;59335;46.652;21.272;2022-10-14T06:46:12;17.37;;;9.77;;
71513;SDS011;59335;46.652;21.272;2022-10-14T06:49:16;17.63;;;9.13;;
71513;SDS011;59335;46.652;21.272;2022-10-14T06:52:19;19.00;;;9.15;;
71513;SDS011;59335;46.652;21.272;2022-10-14T06:55:21;16.50;;;9.00;;
71513;SDS011;59335;46.652;21.272;2022-10-14T06:58:25;15.85;;;9.40;;
71513;SDS011;59335;46.652;21.272;2022-10-14T07:01:28;18.00;;;9.27;;
71513;SDS011;59335;46.652;21.272;2022-10-14T07:04:31;21.38;;;8.93;;
71513;SDS011;59335;46.652;21.272;2022-10-14T07:07:36;21.13;;;9.57;;
71513;SDS011;59335;46.652;21.272;2022-10-14T07:10:39;18.50;;;8.75;;
71513;SDS011;59335;46.652;21.272;2022-10-14T07:13:43;19.23;;;9.57;;
71513;SDS011;59335;46.652;21.272;2022-10-14T07:16:47;17.80;;;9.03;;
71513;SDS011;59335;46.652;21.272;2022-10-14T07:19:50;19.65;;;9.07;;
71513;SDS011;59335;46.652;21.272;2022-10-14T07:22:55;16.65;;;8.95;;
71513;SDS011;59335;46.652;21.272;2022-10-14T07:26:05;16.60;;;9.10;;
71513;SDS011;59335;46.652;21.272;2022-10-14T07:29:08;13.82;;;8.70;;
71513;SDS011;59335;46.652;21.272;2022-10-14T07:32:11;14.77;;;8.90;;
71513;SDS011;59335;46.652;21.272;2022-10-14T07:35:14;15.07;;;9.13;;
71513;SDS011;59335;46.652;21.272;2022-10-14T07:38:18;15.52;;;9.27;;
71513;SDS011;59335;46.652;21.272;2022-10-14T07:41:22;15.48;;;8.90;;
71513;SDS011;59335;46.652;21.272;2022-10-14T07:44:26;14.32;;;8.52;;
71513;SDS011;59335;46.652;21.272;2022-10-14T07:47:28;16.93;;;9.00;;
71513;SDS011;59335;46.652;21.272;2022-10-14T07:50:31;16.63;;;9.13;;
71513;SDS011;59335;46.652;21.272;2022-10-14T07:53:34;21.02;;;9.50;;
71513;SDS011;59335;46.652;21.272;2022-10-14T07:56:38;15.93;;;8.57;;
71513;SDS011;59335;46.652;21.272;2022-10-14T07:59:44;18.40;;;8.95;;
71513;SDS011;59335;46.652;21.272;2022-10-14T08:02:47;15.03;;;8.77;;
71513;SDS011;59335;46.652;21.272;2022-10-14T08:05:56;14.50;;;8.55;;
71513;SDS011;59335;46.652;21.272;2022-10-14T08:09:04;14.68;;;8.70;;
71513;SDS011;59335;46.652;21.272;2022-10-14T08:12:08;17.48;;;8.60;;
71513;SDS011;59335;46.652;21.272;2022-10-14T08:15:11;15.77;;;9.00;;
71513;SDS011;59335;46.652;21.272;2022-10-14T08:18:15;19.43;;;8.53;;
71513;SDS011;59335;46.652;21.272;2022-10-14T08:21:19;16.95;;;8.80;;
71513;SDS011;59335;46.652;21.272;2022-10-14T08:24:22;15.75;;;8.23;;
71513;SDS011;59335;46.652;21.272;2022-10-14T08:27:28;15.60;;;8.63;;
71513;SDS011;59335;46.652;21.272;2022-10-14T08:30:31;14.95;;;8.63;;
71513;SDS011;59335;46.652;21.272;2022-10-14T08:33:33;13.80;;;8.13;;
71513;SDS011;59335;46.652;21.272;2022-10-14T08:36:36;15.82;;;8.27;;
71513;SDS011;59335;46.652;21.272;2022-10-14T08:39:40;15.50;;;8.65;;
71513;SDS011;59335;46.652;21.272;2022-10-14T08:46:25;17.83;;;8.60;;
71513;SDS011;59335;46.652;21.272;2022-10-14T08:49:48;17.53;;;8.10;;
71513;SDS011;59335;46.652;21.272;2022-10-14T08:56:38;17.65;;;8.90;;
71513;SDS011;59335;46.652;21.272;2022-10-14T08:59:41;15.10;;;7.63;;
71513;SDS011;59335;46.652;21.272;2022-10-14T09:02:45;18.85;;;8.40;;
71513;SDS011;59335;46.652;21.272;2022-10-14T09:05:59;18.33;;;8.53;;
71513;SDS011;59335;46.652;21.272;2022-10-14T09:09:27;16.50;;;8.07;;
71513;SDS011;59335;46.652;21.272;2022-10-14T09:12:46;15.32;;;8.13;;
71513;SDS011;59335;46.652;21.272;2022-10-14T09:15:49;17.30;;;8.13;;
71513;SDS011;59335;46.652;21.272;2022-10-14T09:19:01;17.42;;;7.95;;
71513;SDS011;59335;46.652;21.272;2022-10-14T09:22:13;17.20;;;8.30;;
71513;SDS011;59335;46.652;21.272;2022-10-14T09:25:18;16.98;;;8.30;;
71513;SDS011;59335;46.652;21.272;2022-10-14T09:28:25;18.00;;;9.05;;
71513;SDS011;59335;46.652;21.272;2022-10-14T09:31:38;16.33;;;7.75;;
71513;SDS011;59335;46.652;21.272;2022-10-14T09:34:49;18.20;;;8.60;;
71513;SDS011;59335;46.652;21.272;2022-10-14T09:37:53;13.90;;;8.00;;
71513;SDS011;59335;46.652;21.272;2022-10-14T09:40:57;15.73;;;7.72;;
71513;SDS011;59335;46.652;21.272;2022-10-14T09:44:20;16.27;;;9.07;;
71513;SDS011;59335;46.652;21.272;2022-10-14T09:47:30;13.70;;;8.05;;
71513;SDS011;59335;46.652;21.272;2022-10-14T09:50:40;19.15;;;8.43;;
71513;SDS011;59335;46.652;21.272;2022-10-14T09:54:14;12.67;;;8.03;;
71513;SDS011;59335;46.652;21.272;2022-10-14T09:57:16;19.33;;;8.40;;
71513;SDS011;59335;46.652;21.272;2022-10-14T10:00:26;19.17;;;8.95;;
71513;SDS011;59335;46.652;21.272;2022-10-14T10:03:34;16.17;;;7.95;;
71513;SDS011;59335;46.652;21.272;2022-10-14T10:06:49;18.05;;;8.38;;
71513;SDS011;59335;46.652;21.272;2022-10-14T10:09:58;17.80;;;8.30;;
71513;SDS011;59335;46.652;21.272;2022-10-14T10:13:03;18.80;;;8.60;;
71513;SDS011;59335;46.652;21.272;2022-10-14T10:16:43;18.67;;;8.70;;
71513;SDS011;59335;46.652;21.272;2022-10-14T10:19:47;18.92;;;8.48;;
71513;SDS011;59335;46.652;21.272;2022-10-14T10:22:55;22.42;;;9.05;;
71513;SDS011;59335;46.652;21.272;2022-10-14T10:26:13;16.37;;;9.00;;
71513;SDS011;59335;46.652;21.272;2022-10-14T10:29:25;16.02;;;8.20;;
71513;SDS011;59335;46.652;21.272;2022-10-14T10:32:36;18.00;;;9.02;;
71513;SDS011;59335;46.652;21.272;2022-10-14T10:39:36;17.58;;;9.07;;
71513;SDS011;59335;46.652;21.272;2022-10-14T10:43:03;17.57;;;8.73;;
71513;SDS011;59335;46.652;21.272;2022-10-14T10:46:17;20.60;;;8.88;;
71513;SDS011;59335;46.652;21.272;2022-10-14T10:49:49;15.50;;;9.00;;
71513;SDS011;59335;46.652;21.272;2022-10-14T10:57:11;16.77;;;9.43;;
71513;SDS011;59335;46.652;21.272;2022-10-14T11:00:19;15.20;;;8.50;;
71513;SDS011;59335;46.652;21.272;2022-10-14T11:07:19;18.88;;;8.75;;
71513;SDS011;59335;46.652;21.272;2022-10-14T11:17:57;18.13;;;8.40;;
71513;SDS011;59335;46.652;21.272;2022-10-14T11:24:47;14.98;;;8.63;;
71513;SDS011;59335;46.652;21.272;2022-10-14T11:38:44;16.30;;;8.50;;
71513;SDS011;59335;46.652;21.272;2022-10-14T11:45:47;16.08;;;8.20;;
71513;SDS011;59335;46.652;21.272;2022-10-14T11:48:55;15.07;;;8.30;;
71513;SDS011;59335;46.652;21.272;2022-10-14T11:52:02;17.10;;;8.00;;
71513;SDS011;59335;46.652;21.272;2022-10-14T11:58:24;21.52;;;8.73;;
71513;SDS011;59335;46.652;21.272;2022-10-14T12:01:30;17.48;;;8.27;;
71513;SDS011;59335;46.652;21.272;2022-10-14T12:04:52;17.48;;;8.45;;
71513;SDS011;59335;46.652;21.272;2022-10-14T12:08:01;16.67;;;8.50;;
71513;SDS011;59335;46.652;21.272;2022-10-14T12:11:32;20.13;;;8.48;;
71513;SDS011;59335;46.652;21.272;2022-10-14T12:17:56;16.50;;;8.57;;
71513;SDS011;59335;46.652;21.272;2022-10-14T12:21:14;22.42;;;9.07;;
71513;SDS011;59335;46.652;21.272;2022-10-14T12:24:38;17.27;;;8.97;;
71513;SDS011;59335;46.652;21.272;2022-10-14T12:27:44;20.67;;;9.13;;
71513;SDS011;59335;46.652;21.272;2022-10-14T12:30:47;18.33;;;9.32;;
71513;SDS011;59335;46.652;21.272;2022-10-14T12:40:34;26.40;;;9.00;;
71513;SDS011;59335;46.652;21.272;2022-10-14T12:43:38;16.08;;;8.68;;
71513;SDS011;59335;46.652;21.272;2022-10-14T12:46:43;14.00;;;8.98;;
71513;SDS011;59335;46.652;21.272;2022-10-14T12:49:52;17.38;;;9.48;;
71513;SDS011;59335;46.652;21.272;2022-10-14T12:52:58;18.70;;;9.63;;
71513;SDS011;59335;46.652;21.272;2022-10-14T12:56:06;17.13;;;8.77;;
71513;SDS011;59335;46.652;21.272;2022-10-14T12:59:19;16.60;;;9.10;;
71513;SDS011;59335;46.652;21.272;2022-10-14T13:02:33;14.75;;;8.68;;
71513;SDS011;59335;46.652;21.272;2022-10-14T13:05:48;14.70;;;8.23;;
71513;SDS011;59335;46.652;21.272;2022-10-14T13:25:34;16.40;;;8.60;;
71513;SDS011;59335;46.652;21.272;2022-10-14T13:28:41;17.30;;;9.40;;
71513;SDS011;59335;46.652;21.272;2022-10-14T13:32:03;17.08;;;8.85;;
71513;SDS011;59335;46.652;21.272;2022-10-14T13:35:27;18.17;;;8.73;;
71513;SDS011;59335;46.652;21.272;2022-10-14T13:38:50;20.90;;;9.00;;
71513;SDS011;59335;46.652;21.272;2022-10-14T13:41:56;23.08;;;9.77;;
71513;SDS011;59335;46.652;21.272;2022-10-14T13:45:08;26.20;;;9.57;;
71513;SDS011;59335;46.652;21.272;2022-10-14T13:48:17;17.13;;;8.85;;
71513;SDS011;59335;46.652;21.272;2022-10-14T13:51:25;21.17;;;9.60;;
71513;SDS011;59335;46.652;21.272;2022-10-14T13:54:37;21.35;;;9.40;;
71513;SDS011;59335;46.652;21.272;2022-10-14T13:57:40;20.80;;;10.15;;
71513;SDS011;59335;46.652;21.272;2022-10-14T14:01:03;29.60;;;10.20;;
71513;SDS011;59335;46.652;21.272;2022-10-14T14:04:08;21.88;;;9.80;;
71513;SDS011;59335;46.652;21.272;2022-10-14T14:07:23;17.05;;;9.68;;
71513;SDS011;59335;46.652;21.272;2022-10-14T14:10:51;21.17;;;10.90;;
71513;SDS011;59335;46.652;21.272;2022-10-14T14:17:27;21.27;;;10.40;;
71513;SDS011;59335;46.652;21.272;2022-10-14T14:20:36;21.15;;;9.73;;
71513;SDS011;59335;46.652;21.272;2022-10-14T14:23:52;20.13;;;10.63;;
71513;SDS011;59335;46.652;21.272;2022-10-14T14:26:59;21.17;;;9.93;;
71513;SDS011;59335;46.652;21.272;2022-10-14T14:30:02;19.35;;;10.35;;
71513;SDS011;59335;46.652;21.272;2022-10-14T14:33:10;18.30;;;9.20;;
71513;SDS011;59335;46.652;21.272;2022-10-14T14:36:15;21.63;;;10.45;;
71513;SDS011;59335;46.652;21.272;2022-10-14T14:39:40;18.38;;;10.35;;
71513;SDS011;59335;46.652;21.272;2022-10-14T14:42:44;17.63;;;10.00;;
71513;SDS011;59335;46.652;21.272;2022-10-14T14:46:04;20.98;;;10.27;;
71513;SDS011;59335;46.652;21.272;2022-10-14T14:49:07;18.17;;;9.17;;
71513;SDS011;59335;46.652;21.272;2022-10-14T14:52:16;18.63;;;9.68;;
71513;SDS011;59335;46.652;21.272;2022-10-14T14:58:36;18.98;;;10.48;;
71513;SDS011;59335;46.652;21.272;2022-10-14T15:01:48;19.70;;;10.95;;
71513;SDS011;59335;46.652;21.272;2022-10-14T15:05:01;20.10;;;10.83;;
71513;SDS011;59335;46.652;21.272;2022-10-14T15:08:13;16.63;;;10.23;;
71513;SDS011;59335;46.652;21.272;2022-10-14T15:11:24;18.45;;;10.18;;
71513;SDS011;59335;46.652;21.272;2022-10-14T15:14:32;18.92;;;9.80;;
71513;SDS011;59335;46.652;21.272;2022-10-14T15:17:39;19.30;;;10.38;;
71513;SDS011;59335;46.652;21.272;2022-10-14T15:20:48;17.73;;;9.77;;
71513;SDS011;59335;46.652;21.272;2022-10-14T15:26:54;23.75;;;10.82;;
71513;SDS011;59335;46.652;21.272;2022-10-14T15:33:29;21.10;;;11.38;;
71513;SDS011;59335;46.652;21.272;2022-10-14T15:36:32;19.87;;;11.00;;
71513;SDS011;59335;46.652;21.272;2022-10-14T15:39:35;21.35;;;11.73;;
71513;SDS011;59335;46.652;21.272;2022-10-14T15:42:38;21.67;;;11.63;;
71513;SDS011;59335;46.652;21.272;2022-10-14T15:45:44;23.50;;;11.90;;
71513;SDS011;59335;46.652;21.272;2022-10-14T15:49:27;23.92;;;11.30;;
71513;SDS011;59335;46.652;21.272;2022-10-14T15:52:32;18.97;;;10.23;;
71513;SDS011;59335;46.652;21.272;2022-10-14T15:55:34;20.65;;;10.50;;
71513;SDS011;59335;46.652;21.272;2022-10-14T15:58:39;24.30;;;11.93;;
71513;SDS011;59335;46.652;21.272;2022-10-14T16:01:42;19.98;;;10.95;;
71513;SDS011;59335;46.652;21.272;2022-10-14T16:04:46;21.08;;;10.50;;
71513;SDS011;59335;46.652;21.272;2022-10-14T16:08:12;17.80;;;9.60;;
71513;SDS011;59335;46.652;21.272;2022-10-14T16:11:20;23.13;;;11.10;;
71513;SDS011;59335;46.652;21.272;2022-10-14T16:14:25;20.45;;;10.75;;
71513;SDS011;59335;46.652;21.272;2022-10-14T16:17:28;19.95;;;10.52;;
71513;SDS011;59335;46.652;21.272;2022-10-14T16:20:33;21.30;;;10.48;;
71513;SDS011;59335;46.652;21.272;2022-10-14T16:23:36;23.30;;;10.83;;
71513;SDS011;59335;46.652;21.272;2022-10-14T16:26:39;20.00;;;11.02;;
71513;SDS011;59335;46.652;21.272;2022-10-14T16:29:45;22.88;;;10.15;;
71513;SDS011;59335;46.652;21.272;2022-10-14T16:32:48;17.73;;;10.50;;
71513;SDS011;59335;46.652;21.272;2022-10-14T16:35:55;20.00;;;10.32;;
71513;SDS011;59335;46.652;21.272;2022-10-14T16:38:58;19.77;;;10.90;;
71513;SDS011;59335;46.652;21.272;2022-10-14T16:42:03;23.13;;;11.35;;
71513;SDS011;59335;46.652;21.272;2022-10-14T16:45:06;21.80;;;11.75;;
71513;SDS011;59335;46.652;21.272;2022-10-14T16:48:09;20.27;;;11.40;;
71513;SDS011;59335;46.652;21.272;2022-10-14T16:51:11;21.00;;;11.80;;
71513;SDS011;59335;46.652;21.272;2022-10-14T16:54:14;21.50;;;10.93;;
71513;SDS011;59335;46.652;21.272;2022-10-14T16:57:16;18.67;;;10.82;;
71513;SDS011;59335;46.652;21.272;2022-10-14T17:00:19;23.08;;;11.15;;
71513;SDS011;59335;46.652;21.272;2022-10-14T17:03:22;22.75;;;10.98;;
71513;SDS011;59335;46.652;21.272;2022-10-14T17:06:27;22.30;;;11.15;;
71513;SDS011;59335;46.652;21.272;2022-10-14T17:09:29;20.53;;;10.77;;
71513;SDS011;59335;46.652;21.272;2022-10-14T17:12:34;21.17;;;11.52;;
71513;SDS011;59335;46.652;21.272;2022-10-14T17:15:37;20.83;;;12.13;;
71513;SDS011;59335;46.652;21.272;2022-10-14T17:18:41;20.88;;;11.57;;
71513;SDS011;59335;46.652;21.272;2022-10-14T17:21:47;20.02;;;11.43;;
71513;SDS011;59335;46.652;21.272;2022-10-14T17:24:50;22.00;;;11.57;;
71513;SDS011;59335;46.652;21.272;2022-10-14T17:27:52;22.17;;;11.30;;
71513;SDS011;59335;46.652;21.272;2022-10-14T17:30:56;23.17;;;11.50;;
71513;SDS011;59335;46.652;21.272;2022-10-14T17:33:59;19.98;;;11.05;;
71513;SDS011;59335;46.652;21.272;2022-10-14T17:37:02;18.65;;;11.15;;
71513;SDS011;59335;46.652;21.272;2022-10-14T17:40:06;20.00;;;11.07;;
71513;SDS011;59335;46.652;21.272;2022-10-14T17:43:12;18.10;;;11.00;;
71513;SDS011;59335;46.652;21.272;2022-10-14T17:46:16;19.58;;;11.43;;
71513;SDS011;59335;46.652;21.272;2022-10-14T17:49:22;19.90;;;11.57;;
71513;SDS011;59335;46.652;21.272;2022-10-14T17:52:26;19.73;;;12.00;;
71513;SDS011;59335;46.652;21.272;2022-10-14T17:55:28;20.07;;;11.43;;
71513;SDS011;59335;46.652;21.272;2022-10-14T17:58:32;19.80;;;11.75;;
71513;SDS011;59335;46.652;21.272;2022-10-14T18:01:35;20.92;;;11.82;;
71513;SDS011;59335;46.652;21.272;2022-10-14T18:04:58;21.27;;;11.43;;
71513;SDS011;59335;46.652;21.272;2022-10-14T18:08:00;24.80;;;12.45;;
71513;SDS011;59335;46.652;21.272;2022-10-14T18:11:03;20.13;;;12.03;;
71513;SDS011;59335;46.652;21.272;2022-10-14T18:14:12;21.10;;;11.73;;
71513;SDS011;59335;46.652;21.272;2022-10-14T18:17:15;19.83;;;12.73;;
71513;SDS011;59335;46.652;21.272;2022-10-14T18:20:18;22.30;;;12.63;;
71513;SDS011;59335;46.652;21.272;2022-10-14T18:23:25;20.23;;;13.32;;
71513;SDS011;59335;46.652;21.272;2022-10-14T18:26:29;18.60;;;12.00;;
71513;SDS011;59335;46.652;21.272;2022-10-14T18:29:32;23.33;;;12.88;;
71513;SDS011;59335;46.652;21.272;2022-10-14T18:32:35;26.65;;;13.30;;
71513;SDS011;59335;46.652;21.272;2022-10-14T18:35:38;23.27;;;12.60;;
71513;SDS011;59335;46.652;21.272;2022-10-14T18:38:41;22.25;;;12.32;;
71513;SDS011;59335;46.652;21.272;2022-10-14T18:41:44;24.23;;;12.60;;
71513;SDS011;59335;46.652;21.272;2022-10-14T18:44:47;23.67;;;12.75;;
71513;SDS011;59335;46.652;21.272;2022-10-14T18:47:53;22.92;;;14.52;;
71513;SDS011;59335;46.652;21.272;2022-10-14T18:50:57;24.50;;;13.68;;
71513;SDS011;59335;46.652;21.272;2022-10-14T18:54:04;24.80;;;13.98;;
71513;SDS011;59335;46.652;21.272;2022-10-14T18:57:09;23.60;;;13.13;;
71513;SDS011;59335;46.652;21.272;2022-10-14T19:00:16;21.38;;;12.82;;
71513;SDS011;59335;46.652;21.272;2022-10-14T19:03:19;22.65;;;12.85;;
71513;SDS011;59335;46.652;21.272;2022-10-14T19:06:22;20.13;;;13.05;;
71513;SDS011;59335;46.652;21.272;2022-10-14T19:09:25;20.08;;;12.63;;
71513;SDS011;59335;46.652;21.272;2022-10-14T19:12:31;22.87;;;12.90;;
71513;SDS011;59335;46.652;21.272;2022-10-14T19:15:43;22.13;;;13.10;;
71513;SDS011;59335;46.652;21.272;2022-10-14T19:18:53;24.13;;;13.95;;
71513;SDS011;59335;46.652;21.272;2022-10-14T19:21:58;21.85;;;13.68;;
71513;SDS011;59335;46.652;21.272;2022-10-14T19:25:02;24.23;;;13.88;;
71513;SDS011;59335;46.652;21.272;2022-10-14T19:28:05;23.67;;;14.00;;
71513;SDS011;59335;46.652;21.272;2022-10-14T19:31:12;20.98;;;13.45;;
71513;SDS011;59335;46.652;21.272;2022-10-14T19:34:16;23.17;;;13.73;;
71513;SDS011;59335;46.652;21.272;2022-10-14T19:37:20;22.33;;;13.27;;
71513;SDS011;59335;46.652;21.272;2022-10-14T19:40:24;25.10;;;13.55;;
71513;SDS011;59335;46.652;21.272;2022-10-14T19:43:27;23.67;;;13.23;;
71513;SDS011;59335;46.652;21.272;2022-10-14T19:46:30;22.17;;;12.90;;
71513;SDS011;59335;46.652;21.272;2022-10-14T19:49:33;21.83;;;13.85;;
71513;SDS011;59335;46.652;21.272;2022-10-14T19:52:35;22.70;;;14.27;;
71513;SDS011;59335;46.652;21.272;2022-10-14T19:55:38;21.08;;;14.48;;
71513;SDS011;59335;46.652;21.272;2022-10-14T19:58:41;22.30;;;13.63;;
71513;SDS011;59335;46.652;21.272;2022-10-14T20:01:46;23.13;;;13.93;;
71513;SDS011;59335;46.652;21.272;2022-10-14T20:04:49;23.17;;;14.30;;